Angle, Utah
Current Conditions -  °F | °C
As of 2:53 PM on Thursday 23 Oct 2014 (Local Time) from KBCE Reporting Station
Clear Clear  
Wind Chill: 62°   Ceiling: Unl
Heat Index: 62°   Visibility: 10mi
Dew Point: 29°   Wind: 15mph
Humidity: 29%   Direction: 130°SE
Pressure: 30.31"   Gusts: 21mph
Location:  37.9601°N, 112.141°W
Report Text: KBCE 232053Z AUTO 13013G18KT 10SM CLR 17/M02 A3031 RMK AO2 SLP188 T01671017 58015 TSNO
Loading
Personal Weather Stations






























Interactive Weather Map
Tropical Storm Tracking
New forecast layout! Learn more

10-Day Weather Forecast

Advertisements
Track Severe Weather on mobile